sensor_id;sensor_type;location;lat;lon;timestamp;pressure;altitude;pressure_sealevel;temperature;humidity
49063;BME280;34876;51.464;-0.150;2023-02-13T00:01:42;103541.83;;;17.10;39.37
49063;BME280;34876;51.464;-0.150;2023-02-13T00:04:11;103539.71;;;17.17;39.22
49063;BME280;34876;51.464;-0.150;2023-02-13T00:06:41;103541.87;;;16.92;39.74
49063;BME280;34876;51.464;-0.150;2023-02-13T00:09:11;103534.09;;;17.04;39.47
49063;BME280;34876;51.464;-0.150;2023-02-13T00:11:41;103527.78;;;17.03;39.49
49063;BME280;34876;51.464;-0.150;2023-02-13T00:14:10;103527.61;;;16.94;39.68
49063;BME280;34876;51.464;-0.150;2023-02-13T00:16:39;103527.98;;;17.06;39.40
49063;BME280;34876;51.464;-0.150;2023-02-13T00:19:09;103530.94;;;17.06;38.69
49063;BME280;34876;51.464;-0.150;2023-02-13T00:21:39;103522.40;;;17.04;39.41
49063;BME280;34876;51.464;-0.150;2023-02-13T00:24:09;103521.74;;;17.12;39.29
49063;BME280;34876;51.464;-0.150;2023-02-13T00:26:38;103520.59;;;17.16;39.16
49063;BME280;34876;51.464;-0.150;2023-02-13T00:29:11;103519.10;;;17.14;39.18
49063;BME280;34876;51.464;-0.150;2023-02-13T00:31:41;103522.05;;;17.16;39.17
49063;BME280;34876;51.464;-0.150;2023-02-13T00:34:11;103515.24;;;17.13;39.17
49063;BME280;34876;51.464;-0.150;2023-02-13T00:36:40;103514.14;;;17.03;39.36
49063;BME280;34876;51.464;-0.150;2023-02-13T00:39:11;103517.51;;;17.09;39.27
49063;BME280;34876;51.464;-0.150;2023-02-13T00:41:40;103514.89;;;17.16;39.07
49063;BME280;34876;51.464;-0.150;2023-02-13T00:44:10;103514.94;;;17.16;39.09
49063;BME280;34876;51.464;-0.150;2023-02-13T00:46:39;103515.38;;;17.19;39.02
49063;BME280;34876;51.464;-0.150;2023-02-13T00:49:08;103515.54;;;17.19;39.00
49063;BME280;34876;51.464;-0.150;2023-02-13T00:51:37;103511.81;;;17.08;39.17
49063;BME280;34876;51.464;-0.150;2023-02-13T00:54:06;103508.19;;;17.15;39.00
49063;BME280;34876;51.464;-0.150;2023-02-13T00:56:36;103513.49;;;17.17;38.95
49063;BME280;34876;51.464;-0.150;2023-02-13T00:59:06;103514.60;;;17.17;38.93
49063;BME280;34876;51.464;-0.150;2023-02-13T01:03:47;103515.01;;;17.15;38.91
49063;BME280;34876;51.464;-0.150;2023-02-13T01:06:16;103512.67;;;17.13;38.93
49063;BME280;34876;51.464;-0.150;2023-02-13T01:08:45;103516.19;;;17.04;39.09
49063;BME280;34876;51.464;-0.150;2023-02-13T01:11:14;103516.19;;;17.15;38.90
49063;BME280;34876;51.464;-0.150;2023-02-13T01:13:43;103512.59;;;17.16;38.78
49063;BME280;34876;51.464;-0.150;2023-02-13T01:16:12;103517.18;;;16.79;39.61
49063;BME280;34876;51.464;-0.150;2023-02-13T01:18:41;103513.27;;;17.07;39.02
49063;BME280;34876;51.464;-0.150;2023-02-13T01:21:15;103517.49;;;17.12;38.92
49063;BME280;34876;51.464;-0.150;2023-02-13T01:23:45;103520.55;;;17.05;38.95
49063;BME280;34876;51.464;-0.150;2023-02-13T01:26:17;103517.37;;;17.04;39.00
49063;BME280;34876;51.464;-0.150;2023-02-13T01:28:47;103522.49;;;16.99;39.04
49063;BME280;34876;51.464;-0.150;2023-02-13T01:31:16;103519.31;;;16.98;39.16
49063;BME280;34876;51.464;-0.150;2023-02-13T01:33:46;103517.04;;;17.12;38.89
49063;BME280;34876;51.464;-0.150;2023-02-13T01:36:15;103513.80;;;17.12;38.78
49063;BME280;34876;51.464;-0.150;2023-02-13T01:38:45;103506.58;;;17.13;38.79
49063;BME280;34876;51.464;-0.150;2023-02-13T01:41:15;103506.79;;;17.06;38.86
49063;BME280;34876;51.464;-0.150;2023-02-13T01:43:49;103510.91;;;17.10;38.92
49063;BME280;34876;51.464;-0.150;2023-02-13T01:46:28;103511.76;;;17.15;38.67
49063;BME280;34876;51.464;-0.150;2023-02-13T01:49:02;103506.17;;;17.16;38.75
49063;BME280;34876;51.464;-0.150;2023-02-13T01:51:34;103503.41;;;17.19;38.63
49063;BME280;34876;51.464;-0.150;2023-02-13T01:54:08;103498.29;;;17.15;38.69
49063;BME280;34876;51.464;-0.150;2023-02-13T01:56:42;103499.74;;;16.98;39.05
49063;BME280;34876;51.464;-0.150;2023-02-13T01:59:16;103499.42;;;16.86;39.41
49063;BME280;34876;51.464;-0.150;2023-02-13T02:01:47;103502.32;;;17.07;38.90
49063;BME280;34876;51.464;-0.150;2023-02-13T02:04:20;103504.86;;;17.11;38.81
49063;BME280;34876;51.464;-0.150;2023-02-13T02:06:54;103507.08;;;17.05;38.90
49063;BME280;34876;51.464;-0.150;2023-02-13T02:09:27;103502.46;;;17.10;38.79
49063;BME280;34876;51.464;-0.150;2023-02-13T02:12:00;103504.37;;;16.28;40.44
49063;BME280;34876;51.464;-0.150;2023-02-13T02:14:31;103494.80;;;16.83;39.31
49063;BME280;34876;51.464;-0.150;2023-02-13T02:17:00;103496.93;;;17.09;38.81
49063;BME280;34876;51.464;-0.150;2023-02-13T02:19:36;103493.29;;;17.10;38.72
49063;BME280;34876;51.464;-0.150;2023-02-13T02:22:42;103488.86;;;17.12;38.70
49063;BME280;34876;51.464;-0.150;2023-02-13T02:26:07;103487.75;;;17.11;38.68
49063;BME280;34876;51.464;-0.150;2023-02-13T02:28:59;103487.79;;;17.13;38.71
49063;BME280;34876;51.464;-0.150;2023-02-13T02:32:46;103484.09;;;17.15;38.59
49063;BME280;34876;51.464;-0.150;2023-02-13T02:35:28;103482.76;;;17.13;38.68
49063;BME280;34876;51.464;-0.150;2023-02-13T02:38:11;103483.53;;;17.15;38.60
49063;BME280;34876;51.464;-0.150;2023-02-13T02:40:49;103483.09;;;17.14;38.55
49063;BME280;34876;51.464;-0.150;2023-02-13T02:43:36;103479.27;;;17.16;38.55
49063;BME280;34876;51.464;-0.150;2023-02-13T02:46:13;103474.52;;;17.15;38.61
49063;BME280;34876;51.464;-0.150;2023-02-13T02:48:52;103474.14;;;17.15;38.60
49063;BME280;34876;51.464;-0.150;2023-02-13T02:51:26;103475.76;;;17.15;38.51
49063;BME280;34876;51.464;-0.150;2023-02-13T02:54:03;103472.68;;;17.14;38.51
49063;BME280;34876;51.464;-0.150;2023-02-13T02:56:39;103474.25;;;17.14;38.57
49063;BME280;34876;51.464;-0.150;2023-02-13T02:59:13;103473.58;;;17.15;38.57
49063;BME280;34876;51.464;-0.150;2023-02-13T03:01:46;103476.66;;;17.14;38.55
49063;BME280;34876;51.464;-0.150;2023-02-13T03:04:19;103476.43;;;17.15;38.56
49063;BME280;34876;51.464;-0.150;2023-02-13T03:06:52;103475.08;;;17.15;38.51
49063;BME280;34876;51.464;-0.150;2023-02-13T03:09:26;103477.27;;;17.15;38.47
49063;BME280;34876;51.464;-0.150;2023-02-13T03:11:57;103473.01;;;17.15;38.53
49063;BME280;34876;51.464;-0.150;2023-02-13T03:14:27;103472.89;;;17.16;38.48
49063;BME280;34876;51.464;-0.150;2023-02-13T03:16:59;103473.56;;;17.17;38.48
49063;BME280;34876;51.464;-0.150;2023-02-13T03:19:39;103474.12;;;17.16;38.48
49063;BME280;34876;51.464;-0.150;2023-02-13T03:22:21;103473.40;;;17.16;38.51
49063;BME280;34876;51.464;-0.150;2023-02-13T03:25:02;103472.69;;;17.13;38.55
49063;BME280;34876;51.464;-0.150;2023-02-13T03:27:41;103469.25;;;17.17;38.44
49063;BME280;34876;51.464;-0.150;2023-02-13T03:30:20;103470.32;;;17.16;38.55
49063;BME280;34876;51.464;-0.150;2023-02-13T03:33:00;103466.36;;;17.15;38.56
49063;BME280;34876;51.464;-0.150;2023-02-13T03:35:39;103467.42;;;17.16;38.42
49063;BME280;34876;51.464;-0.150;2023-02-13T03:38:16;103465.34;;;17.17;38.36
49063;BME280;34876;51.464;-0.150;2023-02-13T03:40:52;103463.06;;;17.15;38.45
49063;BME280;34876;51.464;-0.150;2023-02-13T03:43:26;103455.61;;;17.16;38.43
49063;BME280;34876;51.464;-0.150;2023-02-13T03:45:58;103451.37;;;17.16;38.43
49063;BME280;34876;51.464;-0.150;2023-02-13T03:48:30;103451.47;;;17.18;38.34
49063;BME280;34876;51.464;-0.150;2023-02-13T03:51:02;103454.04;;;17.18;38.33
49063;BME280;34876;51.464;-0.150;2023-02-13T03:53:34;103448.63;;;17.16;38.41
49063;BME280;34876;51.464;-0.150;2023-02-13T03:56:06;103449.91;;;17.17;38.36
49063;BME280;34876;51.464;-0.150;2023-02-13T03:58:41;103449.90;;;17.17;38.38
49063;BME280;34876;51.464;-0.150;2023-02-13T04:01:15;103449.59;;;17.15;38.36
49063;BME280;34876;51.464;-0.150;2023-02-13T04:03:49;103448.41;;;17.15;38.39
49063;BME280;34876;51.464;-0.150;2023-02-13T04:06:24;103444.84;;;17.14;38.38
49063;BME280;34876;51.464;-0.150;2023-02-13T04:08:55;103447.92;;;17.13;38.42
49063;BME280;34876;51.464;-0.150;2023-02-13T04:11:29;103444.29;;;17.13;38.44
49063;BME280;34876;51.464;-0.150;2023-02-13T04:14:00;103445.18;;;17.13;38.31
49063;BME280;34876;51.464;-0.150;2023-02-13T04:16:35;103447.91;;;17.14;38.40
49063;BME280;34876;51.464;-0.150;2023-02-13T04:19:07;103452.12;;;17.13;38.39
49063;BME280;34876;51.464;-0.150;2023-02-13T04:21:39;103453.30;;;17.12;38.46
49063;BME280;34876;51.464;-0.150;2023-02-13T04:24:08;103452.52;;;17.12;38.37
49063;BME280;34876;51.464;-0.150;2023-02-13T04:26:38;103451.23;;;17.13;38.36
49063;BME280;34876;51.464;-0.150;2023-02-13T04:29:08;103448.43;;;17.13;38.26
49063;BME280;34876;51.464;-0.150;2023-02-13T04:31:37;103449.06;;;17.10;38.41
49063;BME280;34876;51.464;-0.150;2023-02-13T04:34:07;103450.80;;;17.10;38.35
49063;BME280;34876;51.464;-0.150;2023-02-13T04:36:36;103450.63;;;17.11;38.37
49063;BME280;34876;51.464;-0.150;2023-02-13T04:39:05;103451.91;;;17.10;38.32
49063;BME280;34876;51.464;-0.150;2023-02-13T04:41:34;103447.45;;;17.09;38.42
49063;BME280;34876;51.464;-0.150;2023-02-13T04:44:03;103450.63;;;17.10;38.35
49063;BME280;34876;51.464;-0.150;2023-02-13T04:46:32;103449.27;;;17.12;38.32
49063;BME280;34876;51.464;-0.150;2023-02-13T04:49:01;103446.21;;;17.11;38.27
49063;BME280;34876;51.464;-0.150;2023-02-13T04:51:29;103448.12;;;17.10;38.30
49063;BME280;34876;51.464;-0.150;2023-02-13T04:53:58;103447.77;;;17.11;38.31
49063;BME280;34876;51.464;-0.150;2023-02-13T04:56:27;103445.37;;;17.11;38.28
49063;BME280;34876;51.464;-0.150;2023-02-13T04:58:56;103442.35;;;17.10;38.29
49063;BME280;34876;51.464;-0.150;2023-02-13T05:01:25;103440.56;;;17.10;38.27
49063;BME280;34876;51.464;-0.150;2023-02-13T05:03:54;103439.61;;;17.10;38.28
49063;BME280;34876;51.464;-0.150;2023-02-13T05:06:22;103445.38;;;17.10;38.29
49063;BME280;34876;51.464;-0.150;2023-02-13T05:08:51;103444.55;;;17.08;38.23
49063;BME280;34876;51.464;-0.150;2023-02-13T05:11:20;103445.38;;;17.10;38.27
49063;BME280;34876;51.464;-0.150;2023-02-13T05:13:49;103443.77;;;17.08;38.26
49063;BME280;34876;51.464;-0.150;2023-02-13T05:16:17;103442.19;;;17.09;38.17
49063;BME280;34876;51.464;-0.150;2023-02-13T05:18:46;103440.15;;;17.06;38.22
49063;BME280;34876;51.464;-0.150;2023-02-13T05:21:16;103436.43;;;17.10;38.22
49063;BME280;34876;51.464;-0.150;2023-02-13T05:23:45;103431.81;;;17.07;38.22
49063;BME280;34876;51.464;-0.150;2023-02-13T05:26:14;103428.69;;;17.06;38.22
49063;BME280;34876;51.464;-0.150;2023-02-13T05:28:43;103428.24;;;17.06;38.16
49063;BME280;34876;51.464;-0.150;2023-02-13T05:31:12;103428.23;;;17.07;38.16
49063;BME280;34876;51.464;-0.150;2023-02-13T05:33:40;103426.62;;;17.05;38.22
49063;BME280;34876;51.464;-0.150;2023-02-13T05:36:09;103423.87;;;17.07;38.16
49063;BME280;34876;51.464;-0.150;2023-02-13T05:38:38;103424.54;;;17.07;38.14
49063;BME280;34876;51.464;-0.150;2023-02-13T05:41:07;103422.61;;;17.04;38.22
49063;BME280;34876;51.464;-0.150;2023-02-13T05:43:36;103421.08;;;17.07;38.16
49063;BME280;34876;51.464;-0.150;2023-02-13T05:46:07;103417.40;;;17.05;38.11
49063;BME280;34876;51.464;-0.150;2023-02-13T05:48:36;103417.39;;;17.06;38.03
49063;BME280;34876;51.464;-0.150;2023-02-13T05:51:07;103416.74;;;17.03;38.04
49063;BME280;34876;51.464;-0.150;2023-02-13T05:53:36;103415.67;;;17.05;38.01
49063;BME280;34876;51.464;-0.150;2023-02-13T05:56:05;103417.25;;;17.04;38.07
49063;BME280;34876;51.464;-0.150;2023-02-13T05:58:35;103418.92;;;17.04;38.00
49063;BME280;34876;51.464;-0.150;2023-02-13T06:01:04;103419.52;;;17.05;38.10
49063;BME280;34876;51.464;-0.150;2023-02-13T06:03:34;103418.65;;;17.03;38.06
49063;BME280;34876;51.464;-0.150;2023-02-13T06:06:03;103418.60;;;17.02;38.02
49063;BME280;34876;51.464;-0.150;2023-02-13T06:08:32;103414.62;;;17.03;38.08
49063;BME280;34876;51.464;-0.150;2023-02-13T06:11:01;103416.52;;;17.03;37.91
49063;BME280;34876;51.464;-0.150;2023-02-13T06:13:30;103416.40;;;17.05;37.92
49063;BME280;34876;51.464;-0.150;2023-02-13T06:15:59;103420.09;;;17.04;37.91
49063;BME280;34876;51.464;-0.150;2023-02-13T06:18:28;103419.47;;;17.05;37.96
49063;BME280;34876;51.464;-0.150;2023-02-13T06:20:57;103419.04;;;17.03;37.91
49063;BME280;34876;51.464;-0.150;2023-02-13T06:23:26;103422.39;;;17.03;37.86
49063;BME280;34876;51.464;-0.150;2023-02-13T06:25:55;103423.12;;;17.03;37.87
49063;BME280;34876;51.464;-0.150;2023-02-13T06:28:23;103421.55;;;17.04;37.77
49063;BME280;34876;51.464;-0.150;2023-02-13T06:30:52;103415.57;;;17.04;37.89
49063;BME280;34876;51.464;-0.150;2023-02-13T06:33:21;103414.62;;;17.04;37.94
49063;BME280;34876;51.464;-0.150;2023-02-13T06:35:50;103412.94;;;17.04;37.78
49063;BME280;34876;51.464;-0.150;2023-02-13T06:38:19;103416.76;;;16.94;37.99
49063;BME280;34876;51.464;-0.150;2023-02-13T06:40:48;103416.37;;;17.01;37.88
49063;BME280;34876;51.464;-0.150;2023-02-13T06:43:18;103419.52;;;16.46;38.59
49063;BME280;34876;51.464;-0.150;2023-02-13T06:45:47;103417.11;;;16.91;38.10
49063;BME280;34876;51.464;-0.150;2023-02-13T06:48:16;103416.67;;;16.98;37.88
49063;BME280;34876;51.464;-0.150;2023-02-13T06:50:45;103422.03;;;17.00;37.79
49063;BME280;34876;51.464;-0.150;2023-02-13T06:53:14;103426.50;;;17.00;37.84
49063;BME280;34876;51.464;-0.150;2023-02-13T06:55:42;103429.58;;;16.98;37.86
49063;BME280;34876;51.464;-0.150;2023-02-13T06:58:12;103432.98;;;17.01;37.74
49063;BME280;34876;51.464;-0.150;2023-02-13T07:00:41;103433.36;;;17.01;37.77
49063;BME280;34876;51.464;-0.150;2023-02-13T07:03:09;103432.14;;;17.01;37.65
49063;BME280;34876;51.464;-0.150;2023-02-13T07:05:38;103432.64;;;17.00;37.70
49063;BME280;34876;51.464;-0.150;2023-02-13T07:08:08;103433.66;;;16.99;37.73
49063;BME280;34876;51.464;-0.150;2023-02-13T07:10:37;103436.31;;;16.96;37.82
49063;BME280;34876;51.464;-0.150;2023-02-13T07:13:06;103432.65;;;16.99;37.74
49063;BME280;34876;51.464;-0.150;2023-02-13T07:15:36;103433.89;;;16.98;37.75
49063;BME280;34876;51.464;-0.150;2023-02-13T07:18:06;103435.61;;;17.00;37.72
49063;BME280;34876;51.464;-0.150;2023-02-13T07:20:35;103436.58;;;16.98;37.72
49063;BME280;34876;51.464;-0.150;2023-02-13T07:23:05;103434.38;;;17.00;37.62
49063;BME280;34876;51.464;-0.150;2023-02-13T07:25:34;103436.33;;;17.01;37.58
49063;BME280;34876;51.464;-0.150;2023-02-13T07:28:04;103443.37;;;17.02;37.65
49063;BME280;34876;51.464;-0.150;2023-02-13T07:30:34;103445.16;;;17.01;37.62
49063;BME280;34876;51.464;-0.150;2023-02-13T07:33:03;103444.54;;;17.02;37.60
49063;BME280;34876;51.464;-0.150;2023-02-13T07:35:34;103447.44;;;17.03;37.54
49063;BME280;34876;51.464;-0.150;2023-02-13T07:38:04;103447.84;;;17.02;37.57
49063;BME280;34876;51.464;-0.150;2023-02-13T07:40:34;103452.08;;;17.03;37.61
49063;BME280;34876;51.464;-0.150;2023-02-13T07:43:03;103454.67;;;17.00;37.59
49063;BME280;34876;51.464;-0.150;2023-02-13T07:45:33;103455.05;;;17.02;37.57
49063;BME280;34876;51.464;-0.150;2023-02-13T07:48:03;103456.98;;;17.05;37.45
49063;BME280;34876;51.464;-0.150;2023-02-13T07:50:32;103456.21;;;17.04;37.59
49063;BME280;34876;51.464;-0.150;2023-02-13T07:53:01;103455.37;;;17.05;37.47
49063;BME280;34876;51.464;-0.150;2023-02-13T07:55:31;103453.62;;;17.07;37.32
49063;BME280;34876;51.464;-0.150;2023-02-13T07:58:01;103453.06;;;17.07;37.37
49063;BME280;34876;51.464;-0.150;2023-02-13T08:00:30;103446.91;;;17.06;37.46
49063;BME280;34876;51.464;-0.150;2023-02-13T08:02:59;103445.46;;;17.07;37.39
49063;BME280;34876;51.464;-0.150;2023-02-13T08:05:29;103440.70;;;17.06;37.39
49063;BME280;34876;51.464;-0.150;2023-02-13T08:08:00;103437.34;;;17.07;37.39
49063;BME280;34876;51.464;-0.150;2023-02-13T08:10:29;103436.80;;;17.06;37.37
49063;BME280;34876;51.464;-0.150;2023-02-13T08:12:57;103436.22;;;17.09;37.35
49063;BME280;34876;51.464;-0.150;2023-02-13T08:15:26;103436.35;;;17.06;37.34
49063;BME280;34876;51.464;-0.150;2023-02-13T08:17:56;103434.94;;;17.08;37.31
49063;BME280;34876;51.464;-0.150;2023-02-13T08:20:25;103432.03;;;17.15;37.16
49063;BME280;34876;51.464;-0.150;2023-02-13T08:22:59;103431.64;;;17.21;36.95
49063;BME280;34876;51.464;-0.150;2023-02-13T08:25:29;103432.22;;;17.51;36.36
49063;BME280;34876;51.464;-0.150;2023-02-13T08:27:58;103429.73;;;17.59;36.27
49063;BME280;34876;51.464;-0.150;2023-02-13T08:30:27;103428.06;;;17.47;36.44
49063;BME280;34876;51.464;-0.150;2023-02-13T08:32:56;103422.85;;;17.35;36.68
49063;BME280;34876;51.464;-0.150;2023-02-13T08:35:25;103424.99;;;17.34;36.69
49063;BME280;34876;51.464;-0.150;2023-02-13T08:37:54;103427.65;;;17.43;36.53
49063;BME280;34876;51.464;-0.150;2023-02-13T08:40:22;103423.78;;;17.61;36.16
49063;BME280;34876;51.464;-0.150;2023-02-13T08:42:51;103425.50;;;17.74;35.84
49063;BME280;34876;51.464;-0.150;2023-02-13T08:45:20;103423.68;;;17.82;35.68
49063;BME280;34876;51.464;-0.150;2023-02-13T08:47:49;103422.20;;;17.57;36.16
49063;BME280;34876;51.464;-0.150;2023-02-13T08:50:18;103419.54;;;17.37;36.49
49063;BME280;34876;51.464;-0.150;2023-02-13T08:52:48;103418.99;;;17.75;35.75
49063;BME280;34876;51.464;-0.150;2023-02-13T08:55:17;103417.74;;;17.87;35.59
49063;BME280;34876;51.464;-0.150;2023-02-13T08:57:47;103416.06;;;17.87;35.54
49063;BME280;34876;51.464;-0.150;2023-02-13T09:00:16;103420.17;;;17.75;35.82
49063;BME280;34876;51.464;-0.150;2023-02-13T09:02:45;103422.14;;;17.74;35.84
49063;BME280;34876;51.464;-0.150;2023-02-13T09:05:13;103419.85;;;17.84;35.70
49063;BME280;34876;51.464;-0.150;2023-02-13T09:07:42;103419.34;;;17.94;35.50
49063;BME280;34876;51.464;-0.150;2023-02-13T09:10:11;103418.85;;;17.83;35.70
49063;BME280;34876;51.464;-0.150;2023-02-13T09:12:40;103418.34;;;17.74;35.93
49063;BME280;34876;51.464;-0.150;2023-02-13T09:15:09;103412.86;;;17.78;35.87
49063;BME280;34876;51.464;-0.150;2023-02-13T09:17:38;103404.57;;;17.83;35.75
49063;BME280;34876;51.464;-0.150;2023-02-13T09:20:08;103402.90;;;17.39;36.48
49063;BME280;34876;51.464;-0.150;2023-02-13T09:22:37;103400.83;;;17.62;36.09
49063;BME280;34876;51.464;-0.150;2023-02-13T09:25:07;103402.25;;;17.12;37.22
49063;BME280;34876;51.464;-0.150;2023-02-13T09:27:36;103399.83;;;17.50;36.50
49063;BME280;34876;51.464;-0.150;2023-02-13T09:30:06;103399.62;;;17.32;35.98
49063;BME280;34876;51.464;-0.150;2023-02-13T09:32:35;103394.58;;;17.55;36.42
49063;BME280;34876;51.464;-0.150;2023-02-13T09:35:04;103392.00;;;17.51;36.49
49063;BME280;34876;51.464;-0.150;2023-02-13T09:37:33;103390.93;;;16.72;38.04
49063;BME280;34876;51.464;-0.150;2023-02-13T09:40:02;103392.61;;;17.45;36.72
49063;BME280;34876;51.464;-0.150;2023-02-13T09:42:33;103390.36;;;17.46;36.66
49063;BME280;34876;51.464;-0.150;2023-02-13T09:45:04;103389.65;;;17.50;36.58
49063;BME280;34876;51.464;-0.150;2023-02-13T09:47:35;103390.47;;;17.29;36.82
49063;BME280;34876;51.464;-0.150;2023-02-13T09:50:11;103388.86;;;17.51;36.64
49063;BME280;34876;51.464;-0.150;2023-02-13T09:52:44;103388.82;;;17.80;36.03
49063;BME280;34876;51.464;-0.150;2023-02-13T09:55:15;103389.76;;;17.76;36.07
49063;BME280;34876;51.464;-0.150;2023-02-13T09:57:52;103385.35;;;17.71;36.21
49063;BME280;34876;51.464;-0.150;2023-02-13T10:00:30;103381.34;;;17.12;37.13
49063;BME280;34876;51.464;-0.150;2023-02-13T10:03:38;103380.75;;;17.67;36.35
49063;BME280;34876;51.464;-0.150;2023-02-13T10:06:20;103383.58;;;17.78;36.12
49063;BME280;34876;51.464;-0.150;2023-02-13T10:09:01;103385.45;;;17.81;36.04
49063;BME280;34876;51.464;-0.150;2023-02-13T10:11:47;103386.27;;;17.83;36.05
49063;BME280;34876;51.464;-0.150;2023-02-13T10:14:25;103386.72;;;17.83;36.05
49063;BME280;34876;51.464;-0.150;2023-02-13T10:17:00;103384.23;;;17.95;35.92
49063;BME280;34876;51.464;-0.150;2023-02-13T10:19:34;103385.67;;;17.82;36.16
49063;BME280;34876;51.464;-0.150;2023-02-13T10:22:12;103384.58;;;17.84;36.12
49063;BME280;34876;51.464;-0.150;2023-02-13T10:24:47;103383.94;;;17.86;36.17
49063;BME280;34876;51.464;-0.150;2023-02-13T10:27:21;103385.42;;;17.84;36.18
49063;BME280;34876;51.464;-0.150;2023-02-13T10:29:55;103394.51;;;16.44;38.32
49063;BME280;34876;51.464;-0.150;2023-02-13T10:32:28;103387.32;;;16.98;38.01
49063;BME280;34876;51.464;-0.150;2023-02-13T10:34:59;103389.34;;;17.58;36.75
49063;BME280;34876;51.464;-0.150;2023-02-13T10:37:30;103387.40;;;16.81;38.43
49063;BME280;34876;51.464;-0.150;2023-02-13T10:39:59;103384.71;;;17.51;37.00
49063;BME280;34876;51.464;-0.150;2023-02-13T10:42:35;103385.88;;;17.73;36.55
49063;BME280;34876;51.464;-0.150;2023-02-13T10:45:21;103382.42;;;17.87;36.27
49063;BME280;34876;51.464;-0.150;2023-02-13T10:48:02;103385.82;;;17.89;36.22
49063;BME280;34876;51.464;-0.150;2023-02-13T10:50:41;103386.63;;;17.86;36.30
49063;BME280;34876;51.464;-0.150;2023-02-13T10:53:18;103385.17;;;17.81;36.48
49063;BME280;34876;51.464;-0.150;2023-02-13T10:56:02;103388.40;;;17.83;36.42
49063;BME280;34876;51.464;-0.150;2023-02-13T10:58:41;103395.63;;;17.77;36.54
49063;BME280;34876;51.464;-0.150;2023-02-13T11:01:18;103392.79;;;17.76;36.68
49063;BME280;34876;51.464;-0.150;2023-02-13T11:04:03;103390.58;;;17.79;36.59
49063;BME280;34876;51.464;-0.150;2023-02-13T11:06:36;103387.41;;;17.76;36.69
49063;BME280;34876;51.464;-0.150;2023-02-13T11:09:05;103386.61;;;17.78;36.65
49063;BME280;34876;51.464;-0.150;2023-02-13T11:11:37;103384.47;;;17.74;36.76
49063;BME280;34876;51.464;-0.150;2023-02-13T11:14:10;103382.97;;;17.73;36.83
49063;BME280;34876;51.464;-0.150;2023-02-13T11:16:45;103381.47;;;17.51;37.36
49063;BME280;34876;51.464;-0.150;2023-02-13T11:19:19;103382.60;;;17.71;36.90
49063;BME280;34876;51.464;-0.150;2023-02-13T11:21:54;103382.28;;;17.80;36.73
49063;BME280;34876;51.464;-0.150;2023-02-13T11:24:25;103378.01;;;17.81;36.74
49063;BME280;34876;51.464;-0.150;2023-02-13T11:27:01;103375.43;;;17.86;36.65
49063;BME280;34876;51.464;-0.150;2023-02-13T11:29:34;103376.57;;;17.84;36.74
49063;BME280;34876;51.464;-0.150;2023-02-13T11:32:08;103371.20;;;17.84;36.71
49063;BME280;34876;51.464;-0.150;2023-02-13T11:34:45;103373.82;;;17.81;36.83
49063;BME280;34876;51.464;-0.150;2023-02-13T11:37:19;103372.53;;;17.81;36.82
49063;BME280;34876;51.464;-0.150;2023-02-13T11:39:51;103366.89;;;17.80;36.92
49063;BME280;34876;51.464;-0.150;2023-02-13T11:42:27;103363.35;;;17.76;36.95
49063;BME280;34876;51.464;-0.150;2023-02-13T11:44:59;103362.70;;;17.79;36.93
49063;BME280;34876;51.464;-0.150;2023-02-13T11:47:33;103357.00;;;17.78;36.94
49063;BME280;34876;51.464;-0.150;2023-02-13T11:50:06;103352.32;;;17.72;37.08
49063;BME280;34876;51.464;-0.150;2023-02-13T11:52:54;103345.15;;;17.63;37.27
49063;BME280;34876;51.464;-0.150;2023-02-13T11:55:27;103341.88;;;17.74;37.11
49063;BME280;34876;51.464;-0.150;2023-02-13T11:57:59;103339.87;;;17.74;37.11
49063;BME280;34876;51.464;-0.150;2023-02-13T12:00:32;103332.80;;;17.75;37.10
49063;BME280;34876;51.464;-0.150;2023-02-13T12:03:02;103327.12;;;17.73;37.16
49063;BME280;34876;51.464;-0.150;2023-02-13T12:06:02;103320.55;;;17.75;37.14
49063;BME280;34876;51.464;-0.150;2023-02-13T12:08:34;103313.92;;;17.77;37.08
49063;BME280;34876;51.464;-0.150;2023-02-13T12:11:13;103306.79;;;17.74;37.13
49063;BME280;34876;51.464;-0.150;2023-02-13T12:13:46;103312.52;;;17.72;37.21
49063;BME280;34876;51.464;-0.150;2023-02-13T12:16:23;103314.78;;;17.71;37.28
49063;BME280;34876;51.464;-0.150;2023-02-13T12:18:58;103314.95;;;17.66;37.37
49063;BME280;34876;51.464;-0.150;2023-02-13T12:21:38;103317.51;;;17.67;37.41
49063;BME280;34876;51.464;-0.150;2023-02-13T12:24:20;103308.64;;;17.69;37.40
49063;BME280;34876;51.464;-0.150;2023-02-13T12:26:59;103304.36;;;17.71;37.38
49063;BME280;34876;51.464;-0.150;2023-02-13T12:29:49;103300.66;;;17.67;37.40
49063;BME280;34876;51.464;-0.150;2023-02-13T12:32:29;103301.48;;;17.69;37.43
49063;BME280;34876;51.464;-0.150;2023-02-13T12:35:18;103303.56;;;17.63;37.48
49063;BME280;34876;51.464;-0.150;2023-02-13T12:38:00;103296.42;;;17.37;38.19
49063;BME280;34876;51.464;-0.150;2023-02-13T12:40:49;103293.66;;;17.59;37.67
49063;BME280;34876;51.464;-0.150;2023-02-13T12:43:39;103291.56;;;17.66;37.57
49063;BME280;34876;51.464;-0.150;2023-02-13T12:46:16;103287.84;;;17.68;37.50
49063;BME280;34876;51.464;-0.150;2023-02-13T12:48:54;103287.66;;;17.65;37.59
49063;BME280;34876;51.464;-0.150;2023-02-13T12:51:37;103281.93;;;17.62;37.66
49063;BME280;34876;51.464;-0.150;2023-02-13T12:54:27;103277.39;;;17.62;37.64
49063;BME280;34876;51.464;-0.150;2023-02-13T12:57:10;103276.60;;;17.63;37.63
49063;BME280;34876;51.464;-0.150;2023-02-13T12:59:54;103276.53;;;17.63;37.61
49063;BME280;34876;51.464;-0.150;2023-02-13T13:04:51;103280.09;;;17.00;38.86
49063;BME280;34876;51.464;-0.150;2023-02-13T13:07:38;103273.72;;;17.47;38.02
49063;BME280;34876;51.464;-0.150;2023-02-13T13:10:24;103270.08;;;16.70;39.46
49063;BME280;34876;51.464;-0.150;2023-02-13T13:13:03;103267.83;;;16.45;40.18
49063;BME280;34876;51.464;-0.150;2023-02-13T13:15:41;103264.72;;;16.83;39.04